Time;durP1;ratioP1;P1;durP2;ratioP2;P2;SDS_P1;SDS_P2;PMS_P1;PMS_P2;Temp;Humidity;BMP_temperature;BMP_pressure;BME280_temperature;BME280_humidity;BME280_pressure;Samples;Min_cycle;Max_cycle;Signal;HPM_P1;HPM_P2
2024/02/23 00:00:18;;;;;;;1.33;1.20;;;11.40;99.90;;;-141.84;71.32;18570.22;5093301;28;20316;-60
2024/02/23 00:02:46;;;;;;;1.17;1.03;;;11.40;99.90;;;-141.84;72.57;18610.88;5093346;28;20196;-63
2024/02/23 00:05:14;;;;;;;1.00;0.90;;;11.30;99.90;;;-141.84;69.60;18509.28;5094072;28;20254;-60
2024/02/23 00:07:43;;;;;;;1.17;1.00;;;11.40;99.90;;;-141.84;68.41;18505.22;5088509;28;20227;-59
2024/02/23 00:10:11;;;;;;;1.00;0.90;;;11.50;99.90;;;-141.84;65.53;18482.88;5093675;28;20666;-60
2024/02/23 00:12:43;;;;;;;0.90;0.90;;;11.70;99.90;;;-141.84;64.88;18460.53;5093441;28;20269;-60
2024/02/23 00:15:13;;;;;;;2.23;1.27;;;11.80;99.90;;;-141.84;64.22;18486.94;5093298;28;20289;-60
2024/02/23 00:17:41;;;;;;;3.57;1.00;;;11.80;99.90;;;-141.84;63.70;18484.91;5092692;28;20225;-58
2024/02/23 00:20:11;;;;;;;0.70;0.70;;;11.90;99.90;;;-141.84;62.47;18482.88;5093618;28;20215;-59
2024/02/23 00:22:40;;;;;;;1.10;0.80;;;11.90;99.90;;;-141.84;62.25;18493.03;5092935;28;20334;-60
2024/02/23 00:25:09;;;;;;;0.60;0.60;;;12.00;99.90;;;-141.84;62.02;18503.19;5093178;28;20788;-61
2024/02/23 00:27:39;;;;;;;0.93;0.70;;;12.00;99.90;;;-141.84;63.01;18499.13;5093561;28;20247;-60
2024/02/23 00:30:10;;;;;;;0.70;0.70;;;12.00;99.90;;;-141.84;62.71;18478.81;5093137;28;20219;-61
2024/02/23 00:32:38;;;;;;;2.38;0.80;;;11.90;99.90;;;-141.84;62.79;18480.84;5090574;28;20265;-62
2024/02/23 00:35:07;;;;;;;0.90;0.80;;;11.90;99.90;;;-141.84;62.00;18509.28;5091403;28;20192;-60
2024/02/23 00:37:35;;;;;;;1.00;0.70;;;12.00;99.90;;;-141.84;62.34;18525.53;5091144;28;20289;-59
2024/02/23 00:40:05;;;;;;;2.03;0.80;;;12.00;99.90;;;-141.84;63.07;18509.28;5086050;28;20324;-62
2024/02/23 00:42:34;;;;;;;0.77;0.77;;;11.90;99.90;;;-141.84;62.98;18482.88;5091902;28;20959;-63
2024/02/23 00:45:02;;;;;;;0.90;0.80;;;11.80;99.90;;;-141.84;63.53;18488.97;5091571;28;20270;-63
2024/02/23 00:47:32;;;;;;;0.70;0.70;;;11.70;99.90;;;-141.84;63.11;18456.47;5092685;28;20196;-62
2024/02/23 00:50:00;;;;;;;1.20;0.80;;;11.70;99.90;;;-141.84;64.50;18478.81;5083306;28;20225;-64
2024/02/23 00:52:32;;;;;;;0.70;0.70;;;11.60;99.90;;;-141.84;64.92;18509.28;5091910;28;20234;-63
2024/02/23 00:55:01;;;;;;;0.87;0.70;;;11.50;99.90;;;-141.84;63.94;18468.66;5092609;28;20311;-63
2024/02/23 00:57:31;;;;;;;1.87;0.83;;;11.50;99.90;;;-141.84;63.80;18482.88;5090949;28;20619;-62
2024/02/23 00:59:59;;;;;;;0.73;0.60;;;11.50;99.90;;;-141.84;63.78;18505.22;5091392;28;20227;-62
2024/02/23 01:02:27;;;;;;;0.80;0.80;;;11.60;99.90;;;-141.84;63.73;18497.09;5089411;28;20196;-64
2024/02/23 01:04:58;;;;;;;0.97;0.63;;;11.50;99.90;;;-141.84;64.48;18456.47;5091379;28;20227;-63
2024/02/23 01:07:27;;;;;;;1.23;0.60;;;11.50;99.90;;;-141.84;64.32;18493.03;5091071;28;20277;-63
2024/02/23 01:09:58;;;;;;;0.73;0.70;;;11.50;99.90;;;-141.84;64.19;18505.22;5091585;28;20228;-64
2024/02/23 01:12:26;;;;;;;0.87;0.80;;;11.50;99.90;;;-141.84;64.97;18501.16;5091226;28;20258;-63
2024/02/23 01:14:55;;;;;;;1.27;0.77;;;11.40;99.90;;;-141.84;63.76;18476.78;5090922;28;20216;-62
2024/02/23 01:17:23;;;;;;;1.00;0.90;;;11.50;99.90;;;-141.84;63.59;18523.50;5092222;28;20204;-63
2024/02/23 01:19:52;;;;;;;0.70;0.70;;;11.60;99.90;;;-141.84;63.60;18505.22;5082414;28;20310;-62
2024/02/23 01:22:21;;;;;;;1.57;0.90;;;11.50;99.90;;;-141.84;63.06;18519.44;5092531;28;20232;-60
2024/02/23 01:24:49;;;;;;;1.87;0.80;;;11.60;99.90;;;-141.84;63.38;18519.44;5091052;28;20231;-60
2024/02/23 01:27:18;;;;;;;0.73;0.73;;;11.60;99.90;;;-141.84;62.67;18484.91;5091044;28;20736;-60
2024/02/23 01:29:46;;;;;;;0.93;0.70;;;11.60;99.90;;;-141.84;62.60;18533.66;5090424;28;20275;-60
2024/02/23 01:32:14;;;;;;;0.70;0.70;;;11.60;99.90;;;-141.84;62.39;18527.56;5092551;28;20232;-60
2024/02/23 01:34:43;;;;;;;0.80;0.80;;;11.60;99.90;;;-141.84;63.89;18503.19;5091742;28;20224;-59
2024/02/23 01:37:13;;;;;;;1.00;0.80;;;11.50;99.90;;;-141.84;64.06;18488.97;5093337;28;20231;-60
2024/02/23 01:39:43;;;;;;;0.77;0.77;;;11.30;99.90;;;-141.84;63.53;18468.66;5091461;28;20251;-59
2024/02/23 01:42:11;;;;;;;2.60;0.90;;;11.10;99.90;;;-141.84;64.15;18491.00;5091930;28;20966;-61
2024/02/23 01:44:40;;;;;;;0.60;0.60;;;11.00;99.90;;;-141.84;63.41;18466.63;5091592;28;20623;-61
2024/02/23 01:47:08;;;;;;;0.83;0.70;;;11.00;99.90;;;-141.84;62.78;18462.56;5092275;28;20231;-60
2024/02/23 01:49:37;;;;;;;1.10;0.80;;;10.90;99.90;;;-141.84;61.65;18470.69;5092369;28;20303;-59
2024/02/23 01:52:06;;;;;;;1.63;0.70;;;11.00;99.90;;;-141.84;61.62;18470.69;5094953;28;20262;-60
2024/02/23 01:54:35;;;;;;;0.70;0.70;;;10.90;99.90;;;-141.84;62.77;18484.91;5083549;28;20247;-59
2024/02/23 01:57:05;;;;;;;1.43;0.80;;;10.80;99.90;;;-141.84;62.14;18464.59;5092300;28;20224;-59
2024/02/23 01:59:54;;;;;;;0.90;0.90;;;10.80;99.90;;;-141.84;61.92;18491.00;5083911;28;20219;-60
2024/02/23 02:02:22;;;;;;;0.80;0.80;;;10.80;99.90;;;-141.84;62.46;18482.88;5091975;28;20656;-60
2024/02/23 02:04:51;;;;;;;1.40;0.70;;;10.70;99.90;;;-141.84;59.63;18482.88;5091748;28;20223;-60
2024/02/23 02:07:22;;;;;;;1.53;0.77;;;10.70;99.90;;;-141.84;58.35;18462.56;5093123;28;20307;-63
2024/02/23 02:09:50;;;;;;;0.83;0.60;;;10.70;99.90;;;-141.84;56.05;18505.22;5091727;28;20224;-62
2024/02/23 02:12:30;;;;;;;6.20;1.17;;;10.70;99.90;;;-141.84;56.43;18491.00;5091265;28;20405;-62
2024/02/23 02:15:01;;;;;;;0.70;0.40;;;10.70;99.90;;;-141.84;55.09;18511.31;5036114;28;20700;-63
2024/02/23 02:17:32;;;;;;;2.40;0.70;;;10.60;99.90;;;-141.84;54.96;18545.84;5090357;28;20188;-61
2024/02/23 02:20:10;;;;;;;1.17;0.60;;;10.60;99.90;;;-141.84;53.39;18543.81;5092116;28;20607;-62
2024/02/23 02:22:38;;;;;;;0.90;0.67;;;10.60;99.90;;;-141.84;53.59;18549.91;5055154;28;20228;-62
2024/02/23 02:25:09;;;;;;;2.00;0.70;;;10.60;99.90;;;-141.84;52.44;18547.88;5091028;28;20284;-63
2024/02/23 02:27:45;;;;;;;0.40;0.40;;;10.60;99.90;;;-141.84;52.79;18547.88;5090610;28;20297;-62
2024/02/23 02:30:14;;;;;;;0.50;0.50;;;10.50;99.90;;;-141.84;53.16;18553.97;5089771;28;20255;-61
2024/02/23 02:32:42;;;;;;;0.33;0.33;;;10.50;99.90;;;-141.84;53.51;18515.38;5090023;28;20230;-62
2024/02/23 02:35:12;;;;;;;0.63;0.50;;;10.30;99.90;;;-141.84;54.15;18531.63;5093114;28;20201;-63
2024/02/23 02:37:41;;;;;;;0.50;0.40;;;10.20;99.90;;;-141.84;54.50;18537.72;5082943;28;20258;-67
2024/02/23 02:40:12;;;;;;;3.07;0.60;;;10.20;99.90;;;-141.84;54.92;18509.28;5091050;28;20304;-62
2024/02/23 02:42:42;;;;;;;2.20;0.60;;;10.10;99.90;;;-141.84;55.92;18560.06;5091384;28;20315;-62
2024/02/23 02:45:11;;;;;;;1.90;0.40;;;10.10;99.90;;;-141.84;55.87;18491.00;5090758;28;20231;-62
2024/02/23 02:47:39;;;;;;;0.40;0.40;;;10.10;99.90;;;-141.84;56.39;18503.19;5091981;28;20573;-62
2024/02/23 02:50:10;;;;;;;0.57;0.53;;;10.10;99.90;;;-141.84;56.58;18511.31;5091373;28;20571;-63
2024/02/23 02:52:38;;;;;;;0.60;0.50;;;10.10;99.90;;;-141.84;57.02;18474.75;5091597;28;20700;-63
2024/02/23 02:55:08;;;;;;;1.17;0.57;;;10.00;99.90;;;-141.84;57.43;18478.81;5091361;28;20220;-63
2024/02/23 02:57:37;;;;;;;0.87;0.60;;;10.00;99.90;;;-141.84;57.54;18495.06;5071557;28;20303;-63
2024/02/23 03:00:11;;;;;;;1.23;0.50;;;9.90;99.90;;;-141.84;58.00;18486.94;5090417;28;20277;-61
2024/02/23 03:02:39;;;;;;;0.60;0.40;;;9.60;99.90;;;-141.84;57.92;18466.63;5092472;28;20294;-60
2024/02/23 03:05:09;;;;;;;0.50;0.43;;;9.80;99.90;;;-141.84;55.72;18515.38;5090458;28;20227;-62
2024/02/23 03:07:38;;;;;;;0.47;0.37;;;9.80;99.90;;;-141.84;55.51;18507.25;5090553;28;20282;-63
2024/02/23 03:10:08;;;;;;;0.60;0.50;;;9.90;99.90;;;-141.84;54.57;18513.34;5090447;28;20714;-62
2024/02/23 03:12:36;;;;;;;0.50;0.50;;;10.00;99.90;;;-141.84;55.02;18545.84;5055447;28;20311;-62
2024/02/23 03:15:07;;;;;;;0.97;0.70;;;9.90;99.90;;;-141.84;53.76;18513.34;5089795;28;20281;-61
2024/02/23 03:17:36;;;;;;;2.00;0.50;;;9.90;99.90;;;-141.84;53.63;18529.59;5092743;28;20192;-63
2024/02/23 03:20:08;;;;;;;0.87;0.50;;;10.00;99.90;;;-141.84;54.46;18551.94;5090368;28;20220;-63
2024/02/23 03:22:38;;;;;;;0.90;0.40;;;10.00;99.90;;;-141.84;52.70;18515.38;5090079;28;20224;-63
2024/02/23 03:25:11;;;;;;;0.63;0.40;;;10.00;99.90;;;-141.84;53.53;18537.72;5090995;28;20281;-63
2024/02/23 03:27:39;;;;;;;0.33;0.30;;;9.90;99.90;;;-141.84;53.90;18507.25;5090231;28;20699;-65
2024/02/23 03:30:12;;;;;;;1.70;0.80;;;9.90;99.90;;;-141.84;55.24;18493.03;5091145;28;20220;-62
2024/02/23 03:32:42;;;;;;;0.87;0.47;;;9.80;99.90;;;-141.84;55.49;18509.28;5095071;28;20569;-62
2024/02/23 03:35:10;;;;;;;3.00;0.60;;;9.70;99.90;;;-141.84;55.63;18525.53;5094409;28;20223;-61
2024/02/23 03:37:39;;;;;;;2.30;0.50;;;9.70;99.90;;;-141.84;55.97;18497.09;5085955;28;20235;-61
2024/02/23 03:40:11;;;;;;;0.50;0.50;;;9.60;99.90;;;-141.84;55.75;18499.13;5095259;28;20651;-61
2024/02/23 03:42:39;;;;;;;1.47;0.40;;;9.40;99.90;;;-141.84;56.36;18501.16;5056066;28;20286;-61
2024/02/23 03:45:13;;;;;;;1.17;0.50;;;9.30;99.90;;;-141.84;57.08;18456.47;5095475;28;20227;-60
2024/02/23 03:47:41;;;;;;;0.97;0.60;;;9.20;99.90;;;-141.84;57.38;18448.34;5093223;28;20196;-59
2024/02/23 03:50:11;;;;;;;0.73;0.50;;;9.00;99.90;;;-141.84;56.77;18474.75;5094110;28;20188;-59
2024/02/23 03:52:39;;;;;;;0.50;0.50;;;8.90;99.90;;;-141.84;57.57;18444.28;5093380;28;20220;-59
2024/02/23 03:55:08;;;;;;;1.10;0.57;;;8.80;99.90;;;-141.84;58.52;18444.28;5094225;28;20242;-60
2024/02/23 03:57:36;;;;;;;3.00;0.53;;;8.70;99.90;;;-141.84;58.36;18458.50;5094002;28;20224;-61
2024/02/23 04:00:08;;;;;;;1.17;0.50;;;8.60;99.90;;;-141.84;58.23;18448.34;5095373;28;20236;-62
2024/02/23 04:02:37;;;;;;;1.27;0.50;;;8.60;99.90;;;-141.84;57.55;18444.28;5094748;28;20192;-63
2024/02/23 04:05:06;;;;;;;1.53;0.60;;;8.50;99.90;;;-141.84;58.38;18423.94;5093521;28;20295;-63
2024/02/23 04:07:35;;;;;;;0.50;0.50;;;8.40;99.90;;;-141.84;57.74;18452.41;5093013;28;20727;-62
2024/02/23 04:10:04;;;;;;;0.73;0.47;;;8.40;99.90;;;-141.84;58.09;18460.53;5093495;28;20220;-62
2024/02/23 04:12:32;;;;;;;0.50;0.40;;;8.40;99.90;;;-141.84;58.84;18464.59;5093825;28;20738;-62
2024/02/23 04:15:01;;;;;;;0.63;0.50;;;8.30;99.90;;;-141.84;58.80;18434.13;5094935;28;20224;-60
2024/02/23 04:17:30;;;;;;;0.93;0.50;;;8.30;99.90;;;-141.84;58.38;18468.66;5094069;28;20257;-61
2024/02/23 04:20:01;;;;;;;1.67;0.60;;;8.30;99.90;;;-141.84;59.13;18413.78;5093979;28;20215;-60
2024/02/23 04:22:30;;;;;;;1.23;0.50;;;8.30;99.90;;;-141.84;59.96;18421.91;5093534;28;20319;-59
2024/02/23 04:24:58;;;;;;;1.77;0.60;;;8.20;99.90;;;-141.84;60.35;18407.69;5084059;28;20232;-60
2024/02/23 04:27:26;;;;;;;0.70;0.40;;;8.10;99.90;;;-141.84;60.28;18387.38;5093282;28;20711;-60
2024/02/23 04:29:54;;;;;;;0.60;0.50;;;8.10;99.90;;;-141.84;60.76;18403.63;5093359;28;20196;-59
2024/02/23 04:32:23;;;;;;;0.70;0.60;;;8.00;99.90;;;-141.84;61.08;18399.56;5093707;28;20284;-58
2024/02/23 04:34:53;;;;;;;0.70;0.60;;;8.00;99.90;;;-141.84;61.42;18395.50;5093138;28;20538;-59
2024/02/23 04:37:22;;;;;;;0.50;0.50;;;7.90;99.90;;;-141.84;61.85;18436.16;5093292;28;20231;-59
2024/02/23 04:39:52;;;;;;;0.90;0.70;;;7.90;99.90;;;-141.84;61.86;18415.81;5093280;28;20216;-60
2024/02/23 04:42:20;;;;;;;0.53;0.53;;;7.80;99.90;;;-141.84;61.71;18383.31;5094347;28;20736;-60
2024/02/23 04:44:49;;;;;;;1.43;0.60;;;7.80;99.90;;;-141.84;62.28;18399.56;5092945;28;20264;-59
2024/02/23 04:47:18;;;;;;;0.40;0.40;;;7.80;99.90;;;-141.84;61.65;18413.78;5093743;28;20222;-60
2024/02/23 04:49:46;;;;;;;1.00;0.50;;;7.90;99.90;;;-141.84;62.35;18397.53;5092826;28;20269;-60
2024/02/23 04:52:16;;;;;;;0.87;0.70;;;7.70;99.90;;;-141.84;63.33;18379.25;5092432;28;20220;-59
2024/02/23 04:54:44;;;;;;;0.63;0.50;;;7.70;99.90;;;-141.84;62.65;18350.81;5094409;28;20301;-59
2024/02/23 04:57:12;;;;;;;1.40;0.70;;;7.60;99.90;;;-141.84;62.32;18421.91;5094540;28;20235;-59
2024/02/23 04:59:41;;;;;;;0.93;0.60;;;7.70;99.90;;;-141.84;63.38;18381.28;5085551;28;20275;-60
2024/02/23 05:02:10;;;;;;;0.67;0.67;;;7.60;99.90;;;-141.84;62.92;18415.81;5092731;28;20212;-60
2024/02/23 05:04:38;;;;;;;1.57;0.67;;;7.60;99.90;;;-141.84;63.80;18387.38;5093703;28;20227;-60
2024/02/23 05:07:06;;;;;;;1.20;0.57;;;7.60;99.90;;;-141.84;63.38;18377.22;5092343;28;20259;-60
2024/02/23 05:09:35;;;;;;;1.60;0.70;;;7.50;99.90;;;-141.84;62.52;18387.38;5093995;28;20255;-61
2024/02/23 05:12:04;;;;;;;1.20;0.70;;;7.50;99.90;;;-141.84;62.54;18391.44;5093217;28;20247;-60
2024/02/23 05:14:33;;;;;;;0.83;0.80;;;7.50;99.90;;;-141.84;62.51;18379.25;5089910;28;20290;-59
2024/02/23 05:17:03;;;;;;;1.43;0.70;;;7.50;99.90;;;-141.84;61.60;18399.56;5092409;28;20227;-60
2024/02/23 05:19:31;;;;;;;2.43;0.70;;;7.60;99.90;;;-141.84;59.79;18428.03;5092480;28;20227;-59
2024/02/23 05:22:00;;;;;;;0.70;0.60;;;7.60;99.90;;;-141.84;60.43;18385.34;5091253;28;20220;-60
2024/02/23 05:24:31;;;;;;;0.80;0.80;;;7.70;99.90;;;-141.84;58.87;18383.31;5093442;28;20281;-61
2024/02/23 05:27:02;;;;;;;0.87;0.87;;;7.80;99.90;;;-141.84;57.51;18409.72;5056425;28;20228;-59
2024/02/23 05:29:31;;;;;;;1.30;0.63;;;7.90;99.90;;;-141.84;57.26;18442.25;5093100;28;20220;-59
2024/02/23 05:32:00;;;;;;;0.40;0.40;;;8.00;99.90;;;-141.84;56.91;18425.97;5092027;28;20220;-59
2024/02/23 05:34:28;;;;;;;1.67;0.60;;;8.00;99.90;;;-141.84;56.88;18425.97;5085436;28;20291;-59
2024/02/23 05:36:57;;;;;;;0.50;0.50;;;8.00;99.90;;;-141.84;56.14;18438.19;5091835;28;20322;-59
2024/02/23 05:39:25;;;;;;;0.50;0.50;;;8.00;99.90;;;-141.84;57.14;18440.22;5092516;28;20310;-59
2024/02/23 05:41:53;;;;;;;0.53;0.50;;;8.00;99.90;;;-141.84;57.91;18415.81;5091629;28;20735;-60
2024/02/23 05:44:23;;;;;;;0.43;0.40;;;8.00;99.90;;;-141.84;57.35;18428.03;5092633;28;20631;-60
2024/02/23 05:46:51;;;;;;;0.67;0.57;;;7.90;99.90;;;-141.84;57.33;18428.03;5091609;28;20239;-60
2024/02/23 05:49:19;;;;;;;0.60;0.60;;;7.90;99.90;;;-141.84;58.33;18387.38;5091062;28;20227;-60
2024/02/23 05:51:48;;;;;;;0.50;0.40;;;7.90;99.90;;;-141.84;58.39;18403.63;5092024;28;20219;-60
2024/02/23 05:54:19;;;;;;;0.57;0.53;;;7.80;99.90;;;-141.84;59.48;18419.88;5092894;28;20307;-59
2024/02/23 05:56:48;;;;;;;1.00;0.70;;;7.80;99.90;;;-141.84;60.12;18419.88;5091946;28;20192;-59
2024/02/23 05:59:16;;;;;;;0.50;0.50;;;7.70;99.90;;;-141.84;60.67;18411.75;5092609;28;20588;-60
2024/02/23 06:01:46;;;;;;;0.80;0.50;;;7.80;99.90;;;-141.84;61.44;18389.41;5091474;28;20237;-59
2024/02/23 06:04:14;;;;;;;1.60;0.80;;;7.70;99.90;;;-141.84;61.47;18405.66;5090693;28;20224;-58
2024/02/23 06:06:43;;;;;;;2.00;1.03;;;7.70;99.90;;;-141.84;62.02;18403.63;5091065;28;20696;-60
2024/02/23 06:09:12;;;;;;;2.40;0.60;;;7.60;99.90;;;-141.84;62.63;18369.09;5091134;28;20232;-60
2024/02/23 06:11:40;;;;;;;0.87;0.50;;;7.60;99.90;;;-141.84;63.69;18371.13;5091415;28;20326;-60
2024/02/23 06:14:08;;;;;;;1.50;0.57;;;7.60;99.90;;;-141.84;64.49;18428.03;5092468;28;20242;-60
2024/02/23 06:16:37;;;;;;;1.17;0.67;;;7.50;99.90;;;-141.84;64.22;18379.25;5090663;28;20235;-60
2024/02/23 06:19:07;;;;;;;0.57;0.57;;;7.50;99.90;;;-141.84;64.76;18399.56;5091180;28;20231;-58
2024/02/23 06:21:37;;;;;;;1.97;1.00;;;7.50;99.90;;;-141.84;64.76;18387.38;5090049;28;20228;-60
2024/02/23 06:24:08;;;;;;;1.50;0.97;;;7.40;99.90;;;-141.84;64.50;18395.50;5091973;28;20228;-60
2024/02/23 06:26:36;;;;;;;1.63;0.90;;;7.40;99.90;;;-141.84;65.34;18383.31;5091644;28;20204;-59
2024/02/23 06:29:05;;;;;;;1.00;0.70;;;7.40;99.90;;;-141.84;65.00;18403.63;5082666;28;20311;-59
2024/02/23 06:31:34;;;;;;;2.23;1.20;;;7.50;99.90;;;-141.84;65.03;18377.22;5090358;28;20231;-59
2024/02/23 06:34:02;;;;;;;1.17;0.90;;;7.50;99.90;;;-141.84;63.75;18387.38;5090497;28;20273;-58
2024/02/23 06:36:34;;;;;;;1.40;0.87;;;7.50;99.90;;;-141.84;64.41;18423.94;5091019;28;20228;-60
2024/02/23 06:39:02;;;;;;;1.10;0.70;;;7.40;99.90;;;-141.84;64.29;18405.66;5090537;28;20314;-59
2024/02/23 06:41:31;;;;;;;1.23;0.90;;;7.40;99.90;;;-141.84;63.88;18393.47;5092557;28;20227;-60
2024/02/23 06:43:59;;;;;;;1.13;0.67;;;7.40;99.90;;;-141.84;63.49;18373.16;5090281;28;20246;-60
2024/02/23 06:46:27;;;;;;;1.13;0.60;;;7.50;99.90;;;-141.84;61.67;18399.56;5086831;28;20621;-60
2024/02/23 06:48:56;;;;;;;0.90;0.60;;;7.60;99.90;;;-141.84;61.44;18434.13;5089624;28;20238;-59
2024/02/23 06:51:25;;;;;;;1.70;1.00;;;7.60;99.90;;;-141.84;62.30;18363.00;5090459;28;20235;-60
2024/02/23 06:53:56;;;;;;;1.30;0.80;;;7.60;99.90;;;-141.84;63.12;18407.69;5090059;28;20207;-60
2024/02/23 06:56:24;;;;;;;1.93;0.93;;;7.60;99.90;;;-141.84;63.13;18405.66;5088715;28;20195;-60
2024/02/23 06:58:53;;;;;;;1.20;0.77;;;7.60;99.90;;;-141.84;62.58;18381.28;5090816;28;20211;-59
2024/02/23 07:01:21;;;;;;;1.00;0.60;;;7.50;99.90;;;-141.84;62.06;18407.69;5090377;28;20228;-60
2024/02/23 07:03:51;;;;;;;0.83;0.53;;;7.60;99.90;;;-141.84;61.81;18381.28;5090966;28;20220;-59
2024/02/23 07:06:19;;;;;;;2.10;0.77;;;7.60;99.90;;;-141.84;60.65;18403.63;5071933;28;20225;-60
2024/02/23 07:08:47;;;;;;;1.57;0.60;;;7.70;99.90;;;-141.84;59.92;18413.78;5093025;28;20235;-60
2024/02/23 07:11:18;;;;;;;0.70;0.60;;;7.70;99.90;;;-141.84;61.31;18403.63;5095877;28;20208;-60
2024/02/23 07:13:47;;;;;;;0.70;0.50;;;7.70;99.90;;;-141.84;58.84;18423.94;5094229;28;20574;-60
2024/02/23 07:16:16;;;;;;;1.80;0.60;;;7.70;99.90;;;-141.84;59.57;18373.16;5094077;28;20766;-59
2024/02/23 07:18:44;;;;;;;0.57;0.50;;;7.80;99.90;;;-141.84;59.35;18417.84;5093871;28;20215;-59
2024/02/23 07:21:14;;;;;;;0.70;0.60;;;7.80;99.90;;;-141.84;58.03;18432.09;5095003;28;20711;-60
2024/02/23 07:23:43;;;;;;;0.57;0.50;;;7.90;99.90;;;-141.84;57.83;18411.75;5076022;28;20220;-62
2024/02/23 07:26:11;;;;;;;0.67;0.60;;;7.90;99.90;;;-141.84;57.76;18413.78;5095439;28;20238;-59
2024/02/23 07:28:40;;;;;;;0.90;0.57;;;7.90;99.90;;;-141.84;56.94;18428.03;5094279;28;20718;-60
2024/02/23 07:31:08;;;;;;;1.23;0.67;;;8.00;99.90;;;-141.84;56.51;18405.66;5093954;28;20236;-60
2024/02/23 07:33:39;;;;;;;1.43;0.50;;;8.00;99.90;;;-141.84;56.01;18438.19;5094325;28;20331;-60
2024/02/23 07:36:08;;;;;;;0.60;0.50;;;8.00;99.90;;;-141.84;55.28;18460.53;5093236;28;20650;-60
2024/02/23 07:38:36;;;;;;;1.87;0.60;;;8.00;99.90;;;-141.84;55.66;18480.84;5094311;28;20239;-59
2024/02/23 07:41:05;;;;;;;1.03;0.50;;;8.10;99.90;;;-141.84;54.90;18462.56;5093994;28;20218;-60
2024/02/23 07:43:33;;;;;;;1.17;0.60;;;8.10;99.90;;;-141.84;55.10;18456.47;5093576;28;20220;-61
2024/02/23 07:46:04;;;;;;;1.40;0.60;;;8.10;99.90;;;-141.84;53.97;18452.41;5093964;28;20243;-60
2024/02/23 07:48:33;;;;;;;1.43;0.67;;;8.10;99.90;;;-141.84;55.13;18493.03;5093943;28;20231;-60
2024/02/23 07:51:01;;;;;;;1.00;0.60;;;8.20;99.90;;;-141.84;54.17;18470.69;5093417;28;20314;-62
2024/02/23 07:53:29;;;;;;;1.00;0.77;;;8.10;99.90;;;-141.84;54.11;18468.66;5095622;28;20613;-59
2024/02/23 07:55:59;;;;;;;1.87;0.70;;;8.10;99.90;;;-141.84;52.69;18517.41;5092923;28;20223;-61
2024/02/23 07:58:27;;;;;;;1.70;0.80;;;8.10;99.90;;;-141.84;52.70;18466.63;5096849;28;20265;-60
2024/02/23 08:00:58;;;;;;;1.30;0.90;;;8.10;99.90;;;-141.84;52.97;18509.28;5097415;28;20296;-60
2024/02/23 08:03:28;;;;;;;1.03;0.50;;;8.10;99.90;;;-141.84;51.81;18482.88;5097654;28;20327;-60
2024/02/23 08:06:00;;;;;;;0.90;0.60;;;8.10;99.90;;;-141.84;52.16;18497.09;5045159;28;20251;-61
2024/02/23 08:08:35;;;;;;;1.93;0.60;;;8.10;99.90;;;-141.84;51.71;18511.31;5098294;28;20224;-61
2024/02/23 08:11:04;;;;;;;1.20;0.70;;;8.10;99.90;;;-141.84;52.06;18497.09;5092214;28;20316;-61
2024/02/23 08:13:35;;;;;;;5.20;0.80;;;8.10;99.90;;;-141.84;51.23;18525.53;5098086;28;20216;-63
2024/02/23 08:16:03;;;;;;;0.80;0.50;;;8.10;99.90;;;-141.84;50.84;18525.53;5096873;28;20243;-59
2024/02/23 08:18:36;;;;;;;1.20;0.70;;;8.20;99.90;;;-141.84;50.24;18537.72;5097674;28;20276;-61
2024/02/23 08:21:05;;;;;;;1.43;0.70;;;8.20;99.90;;;-141.84;50.29;18529.59;5097786;28;20239;-60
2024/02/23 08:23:35;;;;;;;2.87;0.60;;;8.20;99.90;;;-141.84;50.28;18529.59;5098534;28;20216;-59
2024/02/23 08:26:03;;;;;;;0.60;0.47;;;8.40;99.90;;;-141.84;50.33;18551.94;5097677;28;20296;-61
2024/02/23 08:28:35;;;;;;;1.90;0.63;;;8.30;99.90;;;-141.84;49.53;18566.16;5097207;28;20288;-61
2024/02/23 08:31:03;;;;;;;0.70;0.50;;;8.50;99.90;;;-141.84;49.65;18523.50;5088704;28;20583;-60
2024/02/23 08:33:35;;;;;;;2.30;1.03;;;8.50;99.90;;;-141.84;48.41;18590.56;5097148;28;20248;-60
2024/02/23 08:36:05;;;;;;;0.90;0.50;;;8.60;99.90;;;-141.84;47.71;18582.44;5096636;28;20259;-59
2024/02/23 08:38:35;;;;;;;1.20;0.60;;;8.80;99.90;;;-141.84;47.64;18612.91;5098329;28;20198;-60
2024/02/23 08:41:04;;;;;;;0.97;0.60;;;8.90;99.90;;;-141.84;47.37;18633.22;5096945;28;20424;-61
2024/02/23 08:43:34;;;;;;;0.60;0.60;;;9.00;99.90;;;-141.84;46.79;18604.78;5097227;28;20230;-61
2024/02/23 08:46:03;;;;;;;1.10;0.70;;;9.10;99.90;;;-141.84;47.31;18598.69;5096767;28;20244;-62
2024/02/23 08:48:38;;;;;;;2.43;1.10;;;9.10;99.90;;;-141.84;47.60;18594.63;5096427;28;20232;-61
2024/02/23 08:51:06;;;;;;;1.00;0.60;;;9.00;99.90;;;-141.84;47.36;18692.13;5096713;28;20222;-62
2024/02/23 08:53:35;;;;;;;0.83;0.70;;;9.10;99.90;;;-141.84;47.41;18631.19;5097819;28;20209;-60
2024/02/23 08:56:04;;;;;;;1.73;0.60;;;9.20;99.90;;;-141.84;47.14;18637.28;5094745;28;20576;-59
2024/02/23 08:58:32;;;;;;;1.47;0.60;;;9.30;99.90;;;-141.84;46.00;18659.63;5092092;28;20220;-59
2024/02/23 09:01:00;;;;;;;2.07;0.57;;;9.30;99.90;;;-141.84;45.50;18647.44;5092402;28;20277;-61
2024/02/23 09:03:29;;;;;;;1.67;0.67;;;9.30;99.90;;;-141.84;45.90;18649.47;5092032;28;20244;-60
2024/02/23 09:05:58;;;;;;;1.63;0.80;;;9.30;99.90;;;-141.84;45.75;18681.97;5091513;28;20245;-59
2024/02/23 09:08:27;;;;;;;2.13;0.70;;;9.30;99.90;;;-141.84;44.77;18690.09;5092843;28;20310;-59
2024/02/23 09:10:56;;;;;;;0.60;0.60;;;9.40;99.90;;;-141.84;44.86;18661.66;5092066;28;20223;-61
2024/02/23 09:13:26;;;;;;;1.33;0.77;;;9.40;99.90;;;-141.84;44.79;18714.50;5092089;28;20692;-61
2024/02/23 09:15:54;;;;;;;1.53;0.60;;;9.40;99.90;;;-141.84;45.55;18679.94;5092775;28;20250;-59
2024/02/23 09:18:22;;;;;;;1.37;0.70;;;9.40;99.90;;;-141.84;45.74;18659.63;5086129;28;20247;-60
2024/02/23 09:20:51;;;;;;;1.83;0.73;;;9.50;99.90;;;-141.84;45.14;18702.28;5091428;28;20279;-61
2024/02/23 09:23:21;;;;;;;1.03;0.60;;;9.60;99.90;;;-141.84;44.77;18724.66;5083216;28;20666;-61
2024/02/23 09:25:50;;;;;;;1.70;1.03;;;9.80;99.90;;;-141.84;45.18;18716.53;5091699;28;20949;-59
2024/02/23 09:28:18;;;;;;;1.17;0.70;;;9.80;99.90;;;-141.84;44.62;18734.81;5092385;28;20224;-60
2024/02/23 09:30:46;;;;;;;1.43;0.87;;;9.80;99.90;;;-141.84;45.09;18714.50;5092583;28;20247;-60
2024/02/23 09:33:15;;;;;;;1.63;0.83;;;9.80;99.90;;;-141.84;44.33;18710.44;5092461;28;20251;-58
2024/02/23 09:35:43;;;;;;;0.93;0.73;;;9.90;99.90;;;-141.84;44.99;18742.94;5094918;28;20185;-58
2024/02/23 09:38:13;;;;;;;1.53;0.70;;;9.90;99.90;;;-141.84;44.71;18763.25;5092514;28;20200;-57
2024/02/23 09:40:42;;;;;;;0.80;0.63;;;10.00;99.90;;;-141.84;45.14;18724.66;5091824;28;20220;-56
2024/02/23 09:43:17;;;;;;;2.07;0.67;;;10.00;99.90;;;-141.84;44.90;18747.00;5094452;28;20236;-54
2024/02/23 09:45:47;;;;;;;1.43;0.80;;;10.20;99.90;;;-141.84;45.12;18747.00;5085597;28;20216;-60
2024/02/23 09:48:21;;;;;;;0.97;0.83;;;10.20;99.90;;;-141.84;44.69;18787.63;5040232;28;20321;-59
2024/02/23 09:50:53;;;;;;;1.43;0.70;;;10.30;99.90;;;-141.84;44.87;18759.19;5093575;28;20191;-58
2024/02/23 09:53:22;;;;;;;1.37;0.70;;;10.30;99.90;;;-141.84;44.15;18777.47;5093043;28;20200;-59
2024/02/23 09:55:53;;;;;;;1.40;0.60;;;10.40;99.90;;;-141.84;44.96;18793.72;5091903;28;20228;-60
2024/02/23 09:58:24;;;;;;;1.07;0.87;;;10.30;99.90;;;-141.84;44.68;18757.16;5089616;28;20652;-60
2024/02/23 10:00:56;;;;;;;0.67;0.63;;;10.20;99.90;;;-141.84;44.19;18773.41;5091458;28;20215;-58
2024/02/23 10:03:26;;;;;;;1.23;0.60;;;10.30;99.90;;;-141.84;43.58;18785.59;5091632;28;20307;-59
2024/02/23 10:05:54;;;;;;;1.20;0.80;;;10.30;99.90;;;-141.84;44.17;18828.28;5092456;28;20184;-61
2024/02/23 10:08:22;;;;;;;1.93;0.70;;;10.40;99.90;;;-141.84;43.42;18787.63;5092345;28;20223;-59
2024/02/23 10:10:53;;;;;;;1.43;0.90;;;10.40;99.90;;;-141.84;43.49;18781.53;5092879;28;20257;-60
2024/02/23 10:13:24;;;;;;;2.70;0.80;;;10.40;99.90;;;-141.84;42.63;18807.94;5092711;28;20607;-60
2024/02/23 10:15:53;;;;;;;1.40;0.60;;;10.40;99.90;;;-141.84;42.68;18818.09;5091760;28;20224;-60
2024/02/23 10:18:41;;;;;;;1.17;0.67;;;10.40;99.90;;;-141.84;43.21;18822.19;5092820;28;20215;-60